x

Port Orford - 15 Nm West Of Port Orford, Or (46015) Wave Buoy

7:50pm - Mon 27th Jul 2015 All times are PDT. -7 hours from GMT.

  • Sig Wave height 6.2ft
  • Swell Direction
  • Peak Period 6s
  • Average Period 5s
  • Wind
    18mph, 22mph gusts
  • Sea Temp 54°f
  • Air Temp 59°f
  • Sea Pressure 1021.8mb
  • Port Orford - 15 Nm West Of Port Orford, Or
  • Port Orford - 15 Nm West Of Port Orford, Or

More Historic Weather Station data

Upgrade to MSW Pro to gain access to the past 30 days of data for over 8000 Wavebouys and Weather Stations around the globe.

Join Pro

Comparision Forecast

View Surf forecast
   
Mon 07/27 7:50pm 6ft 6s 5s 18 22 mph 1021.8mb 54f 59f
6:50pm 6ft 10s 5s 22 25 mph 1021.6mb 54f 60f
5:50pm 6ft 9s 5s 22 25 mph 1021.6mb 54f 60f
4:50pm 6ft 5s 5s 20 25 mph 1021.8mb 55f 60f
3:50pm 5ft 9s 5s 22 25 mph 1022mb 55f 60f
2:50pm 5ft 9s 5s 22 25 mph 1022.1mb 54f 60f
1:50pm 5ft 10s 5s 22 27 mph 1022.2mb 55f 60f
12:50pm 5.5ft 10s 6s 20 25 mph 1022.6mb 55f 59f
11:50am 5ft 10s 6s 20 22 mph 1022.7mb 55f 59f
10:50am 5ft 8s 6s 16 20 mph 1022.6mb 54f 58f
9:50am 5ft 9s 6s 16 18 mph 1022.7mb 54f 58f
8:50am 5ft 9s 6s 13 16 mph 1022.3mb 54f 58f
7:50am 5ft 10s 6s 13 16 mph 1022.1mb 53f 58f
6:50am 5ft 9s 6s 11
mph
1021.9mb 53f 57f
5:50am 4.5ft 9s 6s 9 11 mph 1021.6mb 54f 57f
4:50am 5ft 9s  -  13 16 mph 1021.1mb 54f 58f
3:50am 5ft 10s 6s 13 16 mph 1020.9mb 54f 58f
2:50am 5ft 10s 6s 11 13 mph 1020.8mb 54f 58f
1:50am 5ft 10s 6s 13 16 mph 1020.8mb 54f 58f
12:50am 5ft 10s 6s 16
mph
1020.5mb 55f 59f
Sun 07/26 11:50pm 5ft 11s 6s 16 18 mph 1020.5mb 55f 59f
10:50pm 5.5ft 10s 7s 13 16 mph 1020.4mb 55f 60f
9:50pm 5ft 11s 7s 11 13 mph 1019.9mb 56f 60f
8:50pm 6ft 10s 7s 11 13 mph 1019.6mb 56f 60f
7:50pm 5.5ft 11s 7s 13 16 mph 1019.5mb 57f 60f
6:50pm 5ft 10s 7s 11 13 mph 1019.4mb 57f 61f
5:50pm 5.5ft 11s 8s 11 13 mph 1019.5mb 58f 61f
4:50pm 6ft 11s 8s 9 11 mph 1019.6mb 58f 60f
3:50pm 5.5ft 11s 8s 11 16 mph 1019.7mb 58f 61f
2:50pm 5ft 11s 8s 9 11 mph 1019.8mb 57f 60f
1:50pm 6ft 11s 8s 9 11 mph 1020mb 57f 59f
12:50pm 5.5ft 11s 8s 9 11 mph 1019.9mb 57f 59f
11:50am 5.5ft 11s 8s 9
mph
1020.1mb 56f 58f
10:50am 5.5ft 10s 8s 7 9 mph 1019.6mb 56f 58f
9:50am 6ft 11s 8s 7 9 mph 1019.5mb 55f 58f
8:50am 6.5ft 11s 8s 7 9 mph 1019.5mb 55f 57f
7:50am 6ft 11s 8s 7 9 mph 1019.3mb 55f 57f
6:50am 6ft 12s 8s 9
mph
1019.1mb 55f 57f
5:50am 6.5ft 11s 8s 7 9 mph 1019mb 55f 57f
4:50am 6.5ft 12s 8s 7 9 mph 1018.7mb 56f 57f
3:50am 8ft 12s 9s 7 9 mph 1018.9mb 56f 57f
2:50am 7.5ft 12s 9s 7 9 mph 1019.1mb 56f 58f
1:50am 7ft 12s 8s 9 11 mph 1019.3mb 57f 58f
12:50am 8ft 12s 9s 9 11 mph 1019.7mb 56f 59f
Sat 07/25 11:50pm 7ft 13s 8s 9 11 mph 1019.9mb 56f 59f
10:50pm 7.5ft 12s 9s 11
mph
1019.9mb 57f 59f
9:50pm 6ft 10s 8s 11 13 mph 1020mb 57f 60f
8:50pm 6ft 11s 7s 13
mph
1019.9mb 58f 60f
7:50pm 6ft 11s 7s 13
mph
1019.9mb 59f 60f
6:50pm 5.5ft 11s 7s 11 13 mph 1020.1mb 59f 61f
5:50pm 5ft 10s 7s 11
mph
1020.3mb 59f 61f
4:50pm 5.5ft 10s 8s 9 13 mph 1020.7mb 60f 61f
3:50pm 4.5ft 10s 8s 9 11 mph 1020.9mb 59f 60f
2:50pm 5ft 10s 8s 9 11 mph 1020.9mb 59f 60f
1:50pm 4.5ft 9s 8s 9
mph
1021mb 59f 61f
12:50pm 4.5ft 9s 8s 7 9 mph 1021.3mb 58f 62f
11:50am 3.5ft 10s 8s  -  2 mph 1021.4mb 56f 60f
10:50am 4ft 9s 8s 2
mph
1021.1mb 56f 59f
9:50am 4ft 9s 8s 4 7 mph 1021mb 55f 58f
8:50am 4.5ft 9s 8s 4 7 mph 1020.8mb 56f 57f
7:50am 4ft 9s 8s 2 4 mph 1020.6mb 57f 57f
6:50am 3.5ft 9s 8s 2
mph
1020.6mb 57f 58f
5:50am 3.5ft 12s 8s 2
mph
1020.2mb 56f 58f
4:50am 3.5ft 13s 7s 2
mph
1020.2mb 57f 58f
3:50am 4ft 8s 7s 2 4 mph 1020.5mb 58f 59f
2:50am 3.5ft 8s 8s  -  mph 1020.6mb 57f 60f
1:50am 3.5ft 8s 7s  -  mph 1020.8mb 57f 60f
12:50am 3.5ft 8s 7s  -  2 mph 1020.9mb 57f 60f
Fri 07/24 11:50pm 3.5ft 8s 7s 4
mph
1020.9mb 58f 61f
10:50pm 3.5ft 7s 7s 2 4 mph 1021mb 58f 62f
9:50pm 4ft 8s 7s 4
mph
1020.8mb 58f 61f
8:50pm 4ft 8s 7s 4
mph
1020.5mb 58f 60f
7:50pm 4ft 8s 7s 4 7 mph 1020.5mb 58f 60f
6:50pm 4ft 12s 7s 7
mph
1020.5mb 58f 61f
5:50pm 4ft 8s 7s 7
mph
1020.6mb 58f 60f
4:50pm 4.5ft 8s 7s 7 9 mph 1020.6mb 57f 60f
3:50pm 4ft 8s 7s 9 11 mph 1020.7mb 57f 60f
2:50pm 4.5ft 8s 7s 9
mph
1020.7mb 57f 60f
1:50pm 4.5ft 8s 7s 9
mph
1021mb 57f 59f
12:50pm 4.5ft 8s 7s 9 11 mph 1021.1mb 57f 59f
11:50am 4.5ft 8s 8s 9
mph
1021mb 56f 59f
10:50am 5ft 8s 8s 9 11 mph 1020.6mb 56f 58f
9:50am 4.5ft 8s 8s 9
mph
1020.4mb 56f 58f
8:50am 4ft 8s 8s 9 11 mph 1020.2mb 56f 57f
7:50am 4ft 8s 8s 7 9 mph 1019.5mb 56f 57f
6:50am 4ft 13s 7s 7 9 mph 1019.2mb 56f 56f
5:50am 4ft 8s 8s 7
mph
1019mb 56f 56f
4:50am 4ft 14s 7s 4
mph
1018.8mb 56f 57f